createdAt,value
2019-02-24T00:00:00.570Z,37.19
2019-02-24T00:02:32.593Z,35.70
2019-02-24T00:05:04.642Z,35.23
2019-02-24T00:07:36.757Z,35.03
2019-02-24T00:10:08.774Z,35.94
2019-02-24T00:12:40.778Z,37.59
2019-02-24T00:15:12.743Z,38.66
2019-02-24T00:17:44.790Z,38.89
2019-02-24T00:20:16.864Z,40.02
2019-02-24T00:22:49.992Z,40.06
2019-02-24T00:25:23.242Z,40.70
2019-02-24T00:27:55.241Z,40.61
2019-02-24T00:30:27.235Z,41.13
2019-02-24T00:33:00.674Z,41.17
2019-02-24T00:35:32.667Z,41.48
2019-02-24T00:38:04.689Z,42.18
2019-02-24T00:40:36.661Z,41.78
2019-02-24T00:43:09.025Z,41.03
2019-02-24T00:45:41.042Z,41.21
2019-02-24T00:48:13.079Z,40.99
2019-02-24T00:50:46.849Z,39.52
2019-02-24T00:53:18.957Z,39.72
2019-02-24T00:55:50.928Z,36.16
2019-02-24T00:58:23.015Z,35.42
2019-02-24T01:00:55.032Z,37.79
2019-02-24T01:03:27.041Z,41.41
2019-02-24T01:05:59.001Z,42.96
2019-02-24T01:08:31.003Z,43.07
2019-02-24T01:11:02.976Z,42.76
2019-02-24T01:13:34.992Z,42.46
2019-02-24T01:16:06.958Z,43.49
2019-02-24T01:18:40.554Z,45.15
2019-02-24T01:21:12.537Z,45.64
2019-02-24T01:23:44.693Z,46.05
2019-02-24T01:26:16.716Z,46.51
2019-02-24T01:28:48.701Z,46.73
2019-02-24T01:31:20.718Z,47.55
2019-02-24T01:33:52.712Z,47.41
2019-02-24T01:36:24.685Z,47.54
2019-02-24T01:38:56.775Z,47.14
2019-02-24T01:41:29.924Z,46.95
2019-02-24T01:44:01.911Z,46.84
2019-02-24T01:46:34.091Z,47.51
2019-02-24T01:49:06.096Z,46.74
2019-02-24T01:51:38.076Z,46.71
2019-02-24T01:54:10.076Z,46.96
2019-02-24T01:56:42.043Z,47.18
2019-02-24T01:59:14.044Z,47.28
2019-02-24T02:01:46.862Z,47.03
2019-02-24T02:04:18.864Z,47.22
2019-02-24T02:06:50.897Z,46.59
2019-02-24T02:09:22.902Z,46.60
2019-02-24T02:11:54.881Z,46.18
2019-02-24T02:14:26.884Z,46.12
2019-02-24T02:16:58.891Z,46.65
2019-02-24T02:19:30.880Z,46.35
2019-02-24T02:22:02.908Z,46.21
2019-02-24T02:24:34.929Z,45.57
2019-02-24T02:27:06.927Z,44.70
2019-02-24T02:29:38.895Z,44.52
2019-02-24T02:32:10.893Z,44.17
2019-02-24T02:34:42.872Z,44.31
2019-02-24T02:37:16.661Z,43.94
2019-02-24T02:39:48.638Z,43.43
2019-02-24T02:42:20.633Z,42.39
2019-02-24T02:44:52.601Z,41.78
2019-02-24T02:47:24.579Z,42.90
2019-02-24T02:49:56.568Z,43.31
2019-02-24T02:52:28.840Z,43.64
2019-02-24T02:55:00.790Z,43.40
2019-02-24T02:57:32.798Z,43.18
2019-02-24T03:00:12.524Z,42.25
2019-02-24T03:02:44.516Z,42.92
2019-02-24T03:05:16.487Z,45.70
2019-02-24T03:07:54.689Z,46.18
2019-02-24T03:10:26.645Z,46.77
2019-02-24T03:12:58.639Z,47.22
2019-02-24T03:15:30.599Z,46.73
2019-02-24T03:18:02.594Z,46.42
2019-02-24T03:20:34.562Z,45.52
2019-02-24T03:23:06.551Z,44.11
2019-02-24T03:25:38.553Z,42.00
2019-02-24T03:28:10.546Z,40.58
2019-02-24T03:30:42.548Z,40.50
2019-02-24T03:33:14.533Z,40.62
2019-02-24T03:35:46.510Z,39.52
2019-02-24T03:38:18.535Z,40.68
2019-02-24T03:40:50.577Z,41.39
2019-02-24T03:43:22.575Z,43.48
2019-02-24T03:45:54.550Z,45.50
2019-02-24T03:48:26.576Z,46.17
2019-02-24T03:50:58.540Z,47.20
2019-02-24T03:53:30.620Z,47.22
2019-02-24T03:56:02.605Z,46.92
2019-02-24T03:58:34.594Z,46.43
2019-02-24T04:01:06.565Z,45.26
2019-02-24T04:03:38.543Z,45.42
2019-02-24T04:06:10.508Z,45.82
2019-02-24T04:08:42.501Z,45.91
2019-02-24T04:11:14.491Z,47.78
2019-02-24T04:13:46.503Z,48.80
2019-02-24T04:16:18.473Z,48.69
2019-02-24T04:18:50.484Z,48.37
2019-02-24T04:21:22.454Z,48.74
2019-02-24T04:23:54.450Z,48.84
2019-02-24T04:26:26.428Z,48.60
2019-02-24T04:28:58.427Z,47.84
2019-02-24T04:31:30.397Z,46.84
2019-02-24T04:34:02.400Z,46.61
2019-02-24T04:36:34.376Z,46.61
2019-02-24T04:39:06.358Z,47.38
2019-02-24T04:41:38.323Z,47.64
2019-02-24T04:44:10.331Z,47.31
2019-02-24T04:46:42.302Z,46.69
2019-02-24T04:49:14.287Z,46.64
2019-02-24T04:51:46.275Z,45.93
2019-02-24T04:54:18.258Z,45.69
2019-02-24T04:56:50.260Z,45.18
2019-02-24T04:59:22.219Z,45.44
2019-02-24T05:01:54.222Z,45.31
2019-02-24T05:04:26.198Z,45.15
2019-02-24T05:06:58.333Z,45.42
2019-02-24T05:09:30.286Z,47.35
2019-02-24T05:12:02.279Z,47.84
2019-02-24T05:14:34.241Z,47.70
2019-02-24T05:17:06.257Z,47.01
2019-02-24T05:19:38.213Z,48.11
2019-02-24T05:22:10.203Z,47.98
2019-02-24T05:24:42.194Z,47.16
2019-02-24T05:27:14.188Z,45.90
2019-02-24T05:29:46.501Z,45.13
2019-02-24T05:32:18.538Z,44.85
2019-02-24T05:34:50.506Z,44.01
2019-02-24T05:37:22.489Z,43.80
2019-02-24T05:39:54.469Z,43.32
2019-02-24T05:42:26.492Z,43.71
2019-02-24T05:44:58.456Z,43.68
2019-02-24T05:47:30.456Z,44.85
2019-02-24T05:50:02.440Z,45.44
2019-02-24T05:52:34.445Z,45.47
2019-02-24T05:55:06.398Z,44.59
2019-02-24T05:57:38.385Z,44.88
2019-02-24T06:00:10.352Z,44.80
2019-02-24T06:02:42.383Z,43.83
2019-02-24T06:05:14.342Z,43.63
2019-02-24T06:07:46.364Z,43.41
2019-02-24T06:10:18.403Z,42.58
2019-02-24T06:12:50.354Z,41.39
2019-02-24T06:15:22.350Z,41.39
2019-02-24T06:17:54.348Z,41.45
2019-02-24T06:20:26.346Z,41.99
2019-02-24T06:22:58.311Z,42.21
2019-02-24T06:25:30.438Z,43.21
2019-02-24T06:28:02.427Z,44.24
2019-02-24T06:30:34.419Z,44.11
2019-02-24T06:33:06.398Z,44.68
2019-02-24T06:35:38.425Z,45.38
2019-02-24T06:38:10.402Z,45.67
2019-02-24T06:40:42.384Z,45.50
2019-02-24T06:43:14.336Z,45.27
2019-02-24T06:45:46.362Z,46.44
2019-02-24T06:48:18.351Z,45.82
2019-02-24T06:50:59.630Z,46.17
2019-02-24T06:53:31.616Z,43.37
2019-02-24T06:56:03.618Z,42.34
2019-02-24T06:58:35.605Z,42.20
2019-02-24T07:01:07.601Z,41.93
2019-02-24T07:03:39.734Z,41.99
2019-02-24T07:06:11.729Z,41.82
2019-02-24T07:08:43.711Z,42.10
2019-02-24T07:11:15.719Z,42.91
2019-02-24T07:13:47.707Z,42.13
2019-02-24T07:16:19.699Z,42.12
2019-02-24T07:18:51.672Z,42.50
2019-02-24T07:21:23.673Z,43.01
2019-02-24T07:23:55.664Z,43.32
2019-02-24T07:26:27.662Z,43.42
2019-02-24T07:28:59.658Z,41.11
2019-02-24T07:31:31.671Z,41.37
2019-02-24T07:34:03.683Z,39.77
2019-02-24T07:36:35.692Z,37.03
2019-02-24T07:39:07.652Z,36.45
2019-02-24T07:41:39.671Z,36.39
2019-02-24T07:44:11.667Z,35.79
2019-02-24T07:46:43.648Z,34.92
2019-02-24T07:49:15.637Z,34.82
2019-02-24T07:51:47.674Z,34.87
2019-02-24T07:54:19.681Z,34.26
2019-02-24T07:56:51.731Z,34.54
2019-02-24T07:59:23.769Z,34.40
2019-02-24T08:01:55.826Z,33.51
2019-02-24T08:04:27.845Z,34.06
2019-02-24T08:07:00.587Z,33.98
2019-02-24T08:09:32.630Z,33.91
2019-02-24T08:12:04.639Z,33.76
2019-02-24T08:14:36.643Z,34.03
2019-02-24T08:17:08.652Z,33.78
2019-02-24T08:19:40.676Z,33.26
2019-02-24T08:22:12.688Z,32.33
2019-02-24T08:24:44.756Z,31.58
2019-02-24T08:27:16.804Z,30.78
2019-02-24T08:29:48.884Z,30.19
2019-02-24T08:32:20.859Z,29.64
2019-02-24T08:34:53.156Z,29.08
2019-02-24T08:37:25.186Z,28.85
2019-02-24T08:39:57.201Z,28.72
2019-02-24T08:42:29.162Z,28.31
2019-02-24T08:45:01.224Z,27.74
2019-02-24T08:47:33.197Z,27.87
2019-02-24T08:50:06.399Z,27.96
2019-02-24T08:52:38.416Z,27.13
2019-02-24T08:55:10.438Z,27.54
2019-02-24T08:57:42.440Z,27.01
2019-02-24T09:00:14.625Z,26.90
2019-02-24T09:02:46.614Z,25.97
2019-02-24T09:05:18.654Z,25.38
2019-02-24T09:07:50.668Z,25.62
2019-02-24T09:10:22.701Z,25.74
2019-02-24T09:12:54.717Z,25.05
2019-02-24T09:15:26.836Z,24.70
2019-02-24T09:17:58.858Z,24.33
2019-02-24T09:20:31.009Z,23.60
2019-02-24T09:23:03.015Z,23.66
2019-02-24T09:25:45.124Z,23.82
2019-02-24T09:28:17.100Z,23.25
2019-02-24T09:30:49.139Z,23.06
2019-02-24T09:33:21.182Z,22.28
2019-02-24T09:35:53.262Z,21.89
2019-02-24T09:38:25.245Z,22.49
2019-02-24T09:40:57.415Z,21.86
2019-02-24T09:43:29.446Z,22.04
2019-02-24T09:46:01.508Z,22.18
2019-02-24T09:48:33.544Z,22.48
2019-02-24T09:51:05.654Z,22.54
2019-02-24T09:53:37.693Z,22.83
2019-02-24T09:56:09.759Z,23.73
2019-02-24T09:58:41.779Z,23.46
2019-02-24T10:01:13.822Z,23.62
2019-02-24T10:03:45.841Z,23.96
2019-02-24T10:06:17.944Z,23.06
2019-02-24T10:08:50.036Z,22.92
2019-02-24T10:11:22.060Z,22.45
2019-02-24T10:13:54.129Z,21.56
2019-02-24T10:16:26.129Z,21.95
2019-02-24T10:18:58.152Z,21.10
2019-02-24T10:21:30.154Z,21.10
2019-02-24T10:24:02.210Z,20.49
2019-02-24T10:26:34.278Z,20.96
2019-02-24T10:29:06.413Z,21.22
2019-02-24T10:31:38.432Z,20.80
2019-02-24T10:34:10.555Z,19.99
2019-02-24T10:37:02.069Z,19.50
2019-02-24T10:39:34.172Z,19.50
2019-02-24T10:42:25.663Z,18.87
2019-02-24T10:44:57.727Z,18.87
2019-02-24T10:47:29.752Z,19.26
2019-02-24T10:50:02.270Z,19.63
2019-02-24T10:52:34.261Z,19.52
2019-02-24T10:55:06.341Z,18.58
2019-02-24T10:57:38.371Z,18.71
2019-02-24T11:00:11.886Z,18.79
2019-02-24T11:02:43.904Z,18.57
2019-02-24T11:05:16.099Z,18.84
2019-02-24T11:07:48.101Z,18.57
2019-02-24T11:10:20.194Z,17.69
2019-02-24T11:12:52.202Z,17.99
2019-02-24T11:15:24.250Z,17.61
2019-02-24T11:17:56.244Z,16.89
2019-02-24T11:20:28.308Z,17.36
2019-02-24T11:23:00.319Z,17.72
2019-02-24T11:25:32.395Z,17.03
2019-02-24T11:28:04.404Z,17.02
2019-02-24T11:30:36.550Z,15.94
2019-02-24T11:33:08.590Z,16.14
2019-02-24T11:35:40.645Z,16.95
2019-02-24T11:38:53.442Z,16.15
2019-02-24T11:41:25.460Z,16.66
2019-02-24T11:43:57.478Z,16.53
2019-02-24T11:46:29.527Z,16.98
2019-02-24T11:49:01.558Z,16.44
2019-02-24T11:51:33.615Z,16.33
2019-02-24T11:54:05.667Z,16.59
2019-02-24T11:56:37.729Z,16.69
2019-02-24T11:59:09.805Z,15.58
2019-02-24T12:01:47.614Z,16.21
2019-02-24T12:04:15.731Z,16.91
2019-02-24T12:06:47.752Z,16.39
2019-02-24T12:09:19.767Z,16.24
2019-02-24T12:11:51.871Z,16.45
2019-02-24T12:14:23.871Z,16.68
2019-02-24T12:16:55.933Z,16.57
2019-02-24T12:19:27.987Z,16.54
2019-02-24T12:22:00.037Z,16.92
2019-02-24T12:24:32.115Z,16.46
2019-02-24T12:27:04.126Z,16.80
2019-02-24T12:29:36.456Z,16.62
2019-02-24T12:32:08.507Z,16.04
2019-02-24T12:34:40.635Z,16.60
2019-02-24T12:37:12.652Z,16.32
2019-02-24T12:39:44.764Z,16.94
2019-02-24T12:42:19.712Z,16.80
2019-02-24T12:44:52.030Z,16.06
2019-02-24T12:47:24.215Z,16.23
2019-02-24T12:50:02.973Z,15.83
2019-02-24T12:52:30.263Z,15.61
2019-02-24T12:55:02.437Z,15.28
2019-02-24T12:57:34.522Z,14.98
2019-02-24T13:00:10.550Z,15.43
2019-02-24T13:02:44.375Z,15.61
2019-02-24T13:05:16.429Z,15.73
2019-02-24T13:07:48.431Z,15.72
2019-02-24T13:10:20.682Z,15.95
2019-02-24T13:12:52.737Z,15.46
2019-02-24T13:15:24.754Z,15.70
2019-02-24T13:17:56.770Z,16.07
2019-02-24T13:20:28.886Z,15.79
2019-02-24T13:23:01.094Z,15.53
2019-02-24T13:25:35.034Z,15.65
2019-02-24T13:28:07.361Z,15.91
2019-02-24T13:30:39.366Z,16.36
2019-02-24T13:33:11.515Z,16.66
2019-02-24T13:35:43.648Z,16.54
2019-02-24T13:38:15.742Z,16.52
2019-02-24T13:40:47.887Z,16.86
2019-02-24T13:43:19.959Z,16.96
2019-02-24T13:45:52.008Z,17.43
2019-02-24T13:48:24.135Z,16.96
2019-02-24T13:50:56.294Z,16.90
2019-02-24T13:53:28.326Z,17.23
2019-02-24T13:56:00.415Z,17.32
2019-02-24T13:58:34.266Z,17.87
2019-02-24T14:01:06.273Z,17.14
2019-02-24T14:03:38.398Z,16.74
2019-02-24T14:06:10.409Z,16.94
2019-02-24T14:08:42.395Z,16.16
2019-02-24T14:11:14.481Z,16.62
2019-02-24T14:13:48.629Z,15.89
2019-02-24T14:16:22.124Z,16.57
2019-02-24T14:18:54.331Z,16.51
2019-02-24T14:21:26.407Z,16.86
2019-02-24T14:23:58.621Z,16.71
2019-02-24T14:26:30.727Z,16.10
2019-02-24T14:29:02.755Z,16.09
2019-02-24T14:31:34.793Z,16.41
2019-02-24T14:34:06.790Z,16.35
2019-02-24T14:36:38.856Z,16.27
2019-02-24T14:39:10.886Z,16.64
2019-02-24T14:41:43.022Z,17.05
2019-02-24T14:44:16.857Z,17.06
2019-02-24T14:46:48.930Z,17.25
2019-02-24T14:49:20.982Z,17.46
2019-02-24T14:51:52.973Z,17.04
2019-02-24T14:54:25.730Z,16.63
2019-02-24T14:56:57.815Z,17.03
2019-02-24T14:59:29.884Z,17.31
2019-02-24T15:02:01.987Z,17.20
2019-02-24T15:04:34.045Z,17.61
2019-02-24T15:07:07.932Z,17.91
2019-02-24T15:09:40.014Z,18.04
2019-02-24T15:12:12.611Z,18.60
2019-02-24T15:14:44.742Z,18.85
2019-02-24T15:17:16.735Z,18.04
2019-02-24T15:19:48.883Z,18.10
2019-02-24T15:22:20.892Z,17.88
2019-02-24T15:24:52.934Z,17.86
2019-02-24T15:27:24.963Z,18.84
2019-02-24T15:29:57.000Z,18.47
2019-02-24T15:32:29.023Z,18.19
2019-02-24T15:35:01.044Z,18.18
2019-02-24T15:37:33.086Z,18.10
2019-02-24T15:40:06.166Z,18.17
2019-02-24T15:42:38.137Z,18.48
2019-02-24T15:45:10.486Z,18.65
2019-02-24T15:47:42.606Z,18.45
2019-02-24T15:50:14.666Z,18.78
2019-02-24T15:52:46.786Z,18.53
2019-02-24T15:55:18.871Z,18.69
2019-02-24T15:57:52.839Z,18.85
2019-02-24T16:00:24.951Z,19.13
2019-02-24T16:03:01.509Z,19.08
2019-02-24T16:05:31.981Z,19.47
2019-02-24T16:08:04.035Z,19.72
2019-02-24T16:10:38.113Z,19.91
2019-02-24T16:13:16.735Z,19.81
2019-02-24T16:15:44.095Z,19.48
2019-02-24T16:18:16.145Z,19.81
2019-02-24T16:20:48.221Z,19.39
2019-02-24T16:23:22.158Z,19.79
2019-02-24T16:25:54.226Z,19.74
2019-02-24T16:28:26.296Z,19.94
2019-02-24T16:30:58.642Z,19.98
2019-02-24T16:33:30.790Z,20.37
2019-02-24T16:36:02.858Z,20.68
2019-02-24T16:38:34.962Z,20.85
2019-02-24T16:41:08.433Z,20.55
2019-02-24T16:43:40.692Z,20.73
2019-02-24T16:46:12.746Z,21.04
2019-02-24T16:48:44.775Z,20.88
2019-02-24T16:51:16.944Z,21.29
2019-02-24T16:53:49.048Z,21.58
2019-02-24T16:56:21.374Z,21.87
2019-02-24T16:58:53.701Z,22.03
2019-02-24T17:01:25.769Z,21.84
2019-02-24T17:03:57.854Z,22.22
2019-02-24T17:06:29.884Z,22.49
2019-02-24T17:09:03.308Z,23.20
2019-02-24T17:11:35.578Z,23.20
2019-02-24T17:14:07.840Z,23.91
2019-02-24T17:16:39.882Z,23.77
2019-02-24T17:19:11.962Z,24.92
2019-02-24T17:21:43.977Z,24.91
2019-02-24T17:24:16.042Z,24.81
2019-02-24T17:26:48.147Z,24.60
2019-02-24T17:29:20.213Z,24.76
2019-02-24T17:31:52.263Z,25.76
2019-02-24T17:34:24.358Z,26.22
2019-02-24T17:36:56.436Z,26.96
2019-02-24T17:39:28.475Z,27.56
2019-02-24T17:42:00.579Z,27.72
2019-02-24T17:44:32.606Z,28.09
2019-02-24T17:47:04.638Z,28.53
2019-02-24T17:49:36.802Z,28.46
2019-02-24T17:52:08.913Z,28.69
2019-02-24T17:54:41.060Z,29.11
2019-02-24T17:57:13.187Z,30.13
2019-02-24T17:59:46.493Z,30.48
2019-02-24T18:02:19.663Z,31.05
2019-02-24T18:04:51.769Z,31.39
2019-02-24T18:07:23.851Z,31.82
2019-02-24T18:09:57.946Z,32.53
2019-02-24T18:12:31.506Z,33.19
2019-02-24T18:15:03.998Z,33.54
2019-02-24T18:17:36.065Z,33.61
2019-02-24T18:20:09.085Z,34.24
2019-02-24T18:22:41.184Z,33.91
2019-02-24T18:25:13.300Z,33.98
2019-02-24T18:27:45.393Z,34.65
2019-02-24T18:30:19.662Z,34.69
2019-02-24T18:32:51.960Z,35.21
2019-02-24T18:35:24.159Z,35.32
2019-02-24T18:37:56.227Z,35.15
2019-02-24T18:40:28.343Z,35.54
2019-02-24T18:43:00.907Z,35.01
2019-02-24T18:45:33.147Z,35.71
2019-02-24T18:48:05.371Z,35.81
2019-02-24T18:50:37.485Z,36.65
2019-02-24T18:53:09.647Z,36.76
2019-02-24T18:55:41.819Z,37.22
2019-02-24T18:58:14.148Z,37.29
2019-02-24T19:00:46.270Z,37.50
2019-02-24T19:03:18.451Z,38.43
2019-02-24T19:05:50.510Z,38.59
2019-02-24T19:08:22.661Z,37.63
2019-02-24T19:10:54.793Z,36.75
2019-02-24T19:13:27.043Z,36.95
2019-02-24T19:15:59.204Z,37.02
2019-02-24T19:18:31.329Z,36.97
2019-02-24T19:21:03.473Z,37.33
2019-02-24T19:23:35.827Z,37.35
2019-02-24T19:26:09.261Z,37.40
2019-02-24T19:28:41.533Z,37.78
2019-02-24T19:31:13.653Z,37.98
2019-02-24T19:33:45.797Z,38.38
2019-02-24T19:36:17.894Z,38.86
2019-02-24T19:38:50.014Z,38.97
2019-02-24T19:41:22.447Z,38.65
2019-02-24T19:43:54.578Z,38.64
2019-02-24T19:46:26.644Z,38.64
2019-02-24T19:48:58.960Z,38.99
2019-02-24T19:51:31.125Z,39.07
2019-02-24T19:54:03.843Z,39.60
2019-02-24T19:56:36.261Z,40.19
2019-02-24T19:59:08.483Z,40.25
2019-02-24T20:01:40.776Z,40.85
2019-02-24T20:04:16.278Z,40.93
2019-02-24T20:06:48.603Z,40.78
2019-02-24T20:09:22.199Z,40.91
2019-02-24T20:11:54.527Z,40.88
2019-02-24T20:14:26.971Z,41.13
2019-02-24T20:16:59.295Z,41.07
2019-02-24T20:19:33.270Z,41.57
2019-02-24T20:22:05.518Z,42.68
2019-02-24T20:24:37.708Z,43.97
2019-02-24T20:27:10.001Z,44.77
2019-02-24T20:29:42.278Z,44.72
2019-02-24T20:32:14.545Z,44.91
2019-02-24T20:34:47.701Z,44.94
2019-02-24T20:37:20.171Z,45.24
2019-02-24T20:39:52.426Z,45.49
2019-02-24T20:42:25.615Z,45.37
2019-02-24T20:44:57.825Z,45.00
2019-02-24T20:47:29.944Z,45.55
2019-02-24T20:50:02.213Z,45.35
2019-02-24T20:52:36.053Z,46.04
2019-02-24T20:55:10.444Z,46.06
2019-02-24T20:57:42.549Z,46.37
2019-02-24T21:00:26.567Z,46.23
2019-02-24T21:02:58.812Z,46.39
2019-02-24T21:05:31.097Z,46.82
2019-02-24T21:08:03.191Z,46.89
2019-02-24T21:10:35.437Z,46.74
2019-02-24T21:13:07.474Z,46.49
2019-02-24T21:15:39.475Z,46.32
2019-02-24T21:18:11.617Z,46.08
2019-02-24T21:20:43.687Z,45.83
2019-02-24T21:23:15.900Z,46.09
2019-02-24T21:25:47.957Z,46.71
2019-02-24T21:28:20.229Z,46.96
2019-02-24T21:30:52.348Z,47.12
2019-02-24T21:33:24.453Z,47.46
2019-02-24T21:35:56.564Z,47.47
2019-02-24T21:38:28.644Z,47.33
2019-02-24T21:41:00.761Z,47.09
2019-02-24T21:43:32.895Z,46.00
2019-02-24T21:46:05.145Z,45.24
2019-02-24T21:48:37.765Z,43.88
2019-02-24T21:51:09.809Z,44.18
2019-02-24T21:53:41.845Z,46.07
2019-02-24T21:56:13.866Z,46.45
2019-02-24T21:58:46.029Z,45.99
2019-02-24T22:01:18.106Z,45.75
2019-02-24T22:03:50.534Z,44.88
2019-02-24T22:06:24.402Z,44.95
2019-02-24T22:08:56.445Z,45.18
2019-02-24T22:11:28.501Z,46.33
2019-02-24T22:14:00.559Z,45.47
2019-02-24T22:16:32.645Z,45.24
2019-02-24T22:19:06.457Z,45.20
2019-02-24T22:21:38.452Z,45.78
2019-02-24T22:24:10.508Z,46.11
2019-02-24T22:26:42.588Z,45.60
2019-02-24T22:29:14.783Z,46.86
2019-02-24T22:31:46.814Z,47.68
2019-02-24T22:34:18.962Z,48.15
2019-02-24T22:36:50.981Z,48.37
2019-02-24T22:39:23.483Z,47.93
2019-02-24T22:41:55.513Z,48.19
2019-02-24T22:44:27.519Z,48.88
2019-02-24T22:46:59.586Z,48.67
2019-02-24T22:49:31.591Z,48.76
2019-02-24T22:52:03.601Z,49.03
2019-02-24T22:54:35.600Z,48.86
2019-02-24T22:57:07.627Z,48.77
2019-02-24T22:59:39.581Z,48.52
2019-02-24T23:02:11.618Z,48.49
2019-02-24T23:04:43.698Z,48.61
2019-02-24T23:07:15.794Z,48.81
2019-02-24T23:09:47.798Z,48.42
2019-02-24T23:12:19.833Z,48.77
2019-02-24T23:14:51.796Z,49.18
2019-02-24T23:17:23.847Z,49.13
2019-02-24T23:19:56.000Z,49.16
2019-02-24T23:22:28.080Z,48.94
2019-02-24T23:25:00.054Z,48.95
2019-02-24T23:27:33.941Z,49.47
2019-02-24T23:30:06.033Z,49.80
2019-02-24T23:32:38.036Z,49.89
2019-02-24T23:35:10.043Z,49.54
2019-02-24T23:37:42.071Z,49.28
2019-02-24T23:40:14.181Z,49.38
2019-02-24T23:42:46.178Z,49.81
2019-02-24T23:45:18.154Z,50.48
2019-02-24T23:47:50.172Z,50.82
2019-02-24T23:50:22.254Z,50.11
2019-02-24T23:52:54.224Z,50.51
2019-02-24T23:55:26.242Z,50.19
2019-02-24T23:57:58.366Z,49.33
